Time;durP1;ratioP1;P1;durP2;ratioP2;P2;SDS_P1;SDS_P2;PMS_P1;PMS_P2;Temp;Humidity;BMP_temperature;BMP_pressure;BME280_temperature;BME280_humidity;BME280_pressure;Samples;Min_cycle;Max_cycle;Signal;HPM_P1;HPM_P2
2022/06/22 07:27:24;;;;;;;2.47;2.08;;;29.00;94.10;;;;;;4953753;23;20222;-68
2022/06/22 07:29:55;;;;;;;3.65;1.75;;;28.70;94.30;;;;;;4946950;29;20283;-69
2022/06/22 07:32:28;;;;;;;3.22;2.20;;;29.10;93.90;;;;;;4954418;29;20671;-63
2022/06/22 07:35:04;;;;;;;3.33;2.38;;;29.40;92.60;;;;;;4954834;28;20216;-74
2022/06/22 07:37:34;;;;;;;2.72;2.20;;;28.30;93.30;;;;;;4955101;28;20210;-68
2022/06/22 07:40:07;;;;;;;3.30;2.38;;;27.80;94.10;;;;;;4955145;28;20218;-67
2022/06/22 07:42:35;;;;;;;4.00;2.08;;;27.10;94.00;;;;;;4959047;28;20224;-71
2022/06/22 07:45:02;;;;;;;5.22;2.25;;;27.30;94.10;;;;;;4954553;28;20263;-68
2022/06/22 07:47:42;;;;;;;5.07;2.38;;;26.40;95.30;;;;;;4954893;28;20291;-64
2022/06/22 07:50:14;;;;;;;3.63;1.90;;;26.30;95.30;;;;;;4954788;29;20571;-63
2022/06/22 07:52:45;;;;;;;3.47;2.28;;;26.90;95.20;;;;;;4954416;28;20223;-64
2022/06/22 07:55:25;;;;;;;2.88;2.08;;;27.10;94.40;;;;;;4958289;28;20203;-64
2022/06/22 07:58:08;;;;;;;2.60;2.05;;;27.60;94.30;;;;;;4973305;28;20215;-63
2022/06/22 08:00:40;;;;;;;3.28;2.10;;;27.60;94.00;;;;;;4972894;28;20206;-66
2022/06/22 08:03:21;;;;;;;3.40;2.15;;;28.30;93.60;;;;;;4972862;28;20318;-63
2022/06/22 08:05:50;;;;;;;3.28;2.00;;;28.90;93.50;;;;;;4974285;28;20243;-64
2022/06/22 08:08:20;;;;;;;3.55;2.10;;;29.30;92.10;;;;;;4974283;28;20562;-64
2022/06/22 08:10:53;;;;;;;3.55;2.00;;;28.60;92.60;;;;;;4974490;28;20211;-63
2022/06/22 08:13:24;;;;;;;5.47;1.80;;;28.70;92.60;;;;;;4974311;28;20234;-62
2022/06/22 08:15:56;;;;;;;3.65;2.10;;;28.80;92.50;;;;;;4974022;28;20672;-62
2022/06/22 08:18:23;;;;;;;3.35;1.70;;;28.20;92.80;;;;;;4975043;28;20238;-62
2022/06/22 08:20:53;;;;;;;5.65;1.77;;;28.10;92.70;;;;;;4977991;28;20213;-65
2022/06/22 08:23:23;;;;;;;3.08;2.20;;;27.70;93.00;;;;;;4977630;28;20227;-62
2022/06/22 08:25:52;;;;;;;4.40;2.40;;;27.80;92.70;;;;;;4978137;28;20626;-61
2022/06/22 08:28:23;;;;;;;4.10;2.00;;;27.00;93.30;;;;;;4977879;28;20302;-62
2022/06/22 08:30:54;;;;;;;2.88;1.80;;;27.40;93.50;;;;;;4978057;28;20229;-62
2022/06/22 08:33:28;;;;;;;4.00;1.77;;;27.50;94.10;;;;;;4977532;28;20226;-62
2022/06/22 08:35:58;;;;;;;4.00;2.10;;;27.50;93.70;;;;;;4977052;28;20207;-62
2022/06/22 08:38:29;;;;;;;5.03;2.50;;;27.40;93.80;;;;;;4977522;28;20681;-61
2022/06/22 08:41:05;;;;;;;2.88;2.05;;;28.30;93.00;;;;;;4977884;28;20211;-62
2022/06/22 08:43:40;;;;;;;3.63;1.92;;;28.40;93.00;;;;;;4977625;28;20223;-61
2022/06/22 08:46:42;;;;;;;3.08;1.70;;;28.50;92.50;;;;;;4977519;28;20245;-62
2022/06/22 08:49:35;;;;;;;2.85;1.60;;;28.40;92.60;;;;;;4977398;28;20693;-67
2022/06/22 08:52:17;;;;;;;3.75;2.00;;;28.60;91.60;;;;;;4977217;28;20319;-63
2022/06/22 08:55:00;;;;;;;2.78;1.67;;;27.80;91.90;;;;;;4977099;28;20210;-62
2022/06/22 08:57:40;;;;;;;4.90;1.90;;;27.60;92.20;;;;;;4977533;28;20207;-68
2022/06/22 09:00:15;;;;;;;4.18;1.83;;;27.70;92.60;;;;;;4977448;28;20211;-62
2022/06/22 09:03:29;;;;;;;3.45;1.40;;;28.30;92.50;;;;;;4977283;28;20231;-62
2022/06/22 09:06:23;;;;;;;2.88;1.50;;;28.30;91.60;;;;;;4972419;28;20600;-66
2022/06/22 09:09:11;;;;;;;2.58;1.60;;;27.70;92.20;;;;;;4972230;28;20305;-62
2022/06/22 09:11:45;;;;;;;4.40;1.88;;;28.10;91.80;;;;;;4977480;28;20302;-62
2022/06/22 09:14:39;;;;;;;4.28;1.75;;;27.90;91.70;;;;;;4977401;28;20216;-62
2022/06/22 09:17:46;;;;;;;3.15;1.90;;;27.30;92.10;;;;;;4976957;28;20213;-62
2022/06/22 09:20:45;;;;;;;3.95;1.70;;;27.00;92.20;;;;;;4972117;28;20217;-69
2022/06/22 09:23:26;;;;;;;3.55;1.60;;;27.00;92.80;;;;;;4977002;28;20233;-62
2022/06/22 09:26:17;;;;;;;3.92;2.13;;;26.70;92.70;;;;;;4977068;28;20266;-62
2022/06/22 09:28:49;;;;;;;5.38;2.15;;;26.10;93.30;;;;;;4976871;28;20215;-62
2022/06/22 09:31:51;;;;;;;3.13;1.95;;;26.80;93.20;;;;;;4976124;28;20561;-62
2022/06/22 09:34:48;;;;;;;3.22;1.80;;;27.20;92.20;;;;;;4976998;28;20207;-62
2022/06/22 09:37:30;;;;;;;2.88;1.55;;;27.10;92.60;;;;;;4977232;28;20204;-80
2022/06/22 09:40:21;;;;;;;2.53;1.52;;;27.00;93.00;;;;;;4976832;28;20214;-64
2022/06/22 09:43:26;;;;;;;2.75;1.90;;;27.10;92.30;;;;;;4976509;28;20229;-62
2022/06/22 09:46:17;;;;;;;2.55;1.50;;;27.00;91.80;;;;;;4942168;28;20313;-62
2022/06/22 09:49:06;;;;;;;3.40;1.98;;;27.20;92.00;;;;;;4976636;28;20546;-62
2022/06/22 09:52:00;;;;;;;8.90;2.00;;;27.30;92.10;;;;;;4976445;28;20662;-61
2022/06/22 09:58:12;;;;;;;3.58;1.73;;;27.20;90.60;;;;;;4953292;28;20285;-61
2022/06/22 10:00:50;;;;;;;2.20;1.48;;;27.80;90.30;;;;;;4976468;28;20211;-62
2022/06/22 10:03:49;;;;;;;3.35;1.70;;;27.50;91.10;;;;;;4976157;28;20274;-62
2022/06/22 10:06:48;;;;;;;2.22;1.60;;;27.50;91.00;;;;;;4975826;28;20280;-62
2022/06/22 10:09:40;;;;;;;3.22;1.80;;;27.50;91.50;;;;;;4976142;28;20258;-62
2022/06/22 10:12:32;;;;;;;4.57;1.65;;;27.40;90.40;;;;;;4976007;28;20224;-62
2022/06/22 10:15:24;;;;;;;3.83;1.90;;;26.90;90.80;;;;;;4976243;28;20610;-62
2022/06/22 10:18:10;;;;;;;2.47;1.67;;;26.20;91.90;;;;;;4976014;28;20211;-64
2022/06/22 10:20:56;;;;;;;2.13;1.70;;;25.30;92.10;;;;;;4976395;28;20211;-61
2022/06/22 10:23:49;;;;;;;3.40;1.70;;;24.90;92.60;;;;;;4975879;28;20329;-61
2022/06/22 10:26:44;;;;;;;3.58;1.80;;;24.70;92.60;;;;;;4976031;28;20322;-61
2022/06/22 10:29:45;;;;;;;3.83;1.75;;;24.70;92.20;;;;;;4973530;28;20210;-62
2022/06/22 10:32:39;;;;;;;5.03;1.67;;;24.90;92.20;;;;;;4975648;28;20289;-66
2022/06/22 10:35:20;;;;;;;2.92;1.60;;;24.90;92.70;;;;;;4975755;28;20240;-62
2022/06/22 10:38:06;;;;;;;6.70;2.20;;;24.90;92.10;;;;;;4975801;28;20214;-71
2022/06/22 10:46:46;;;;;;;3.72;1.67;;;24.30;91.80;;;;;;4976355;28;20241;-62
2022/06/22 10:49:40;;;;;;;4.97;1.40;;;24.40;91.10;;;;;;4976082;28;20245;-63
2022/06/22 10:52:37;;;;;;;4.05;1.65;;;24.50;91.70;;;;;;4976279;28;20227;-76
2022/06/22 10:55:24;;;;;;;3.42;1.80;;;24.90;92.50;;;;;;4970648;28;20246;-64
2022/06/22 10:58:17;;;;;;;4.20;1.60;;;25.10;92.20;;;;;;4975711;28;20230;-63
2022/06/22 11:00:59;;;;;;;2.97;1.67;;;24.90;92.30;;;;;;4965977;28;20566;-76
2022/06/22 11:03:59;;;;;;;4.25;1.75;;;24.60;92.00;;;;;;4975981;28;20282;-62
2022/06/22 11:06:54;;;;;;;3.65;1.75;;;24.70;91.70;;;;;;4975415;28;20329;-64
2022/06/22 11:09:51;;;;;;;3.78;1.70;;;24.80;92.20;;;;;;4975834;28;20207;-62
2022/06/22 11:12:32;;;;;;;3.33;1.60;;;24.60;92.40;;;;;;4961314;28;20262;-63
2022/06/22 11:15:33;;;;;;;2.28;1.52;;;24.70;91.80;;;;;;4975846;28;20633;-64
2022/06/22 11:18:34;;;;;;;2.58;1.73;;;24.80;91.80;;;;;;4950060;28;20211;-62
2022/06/22 11:21:12;;;;;;;3.53;1.45;;;25.00;91.70;;;;;;4975116;28;20210;-62
2022/06/22 11:24:02;;;;;;;3.20;1.50;;;25.20;92.30;;;;;;4974677;28;20233;-61
2022/06/22 11:32:47;;;;;;;2.78;1.30;;;25.20;91.10;;;;;;4974755;28;20262;-62
2022/06/22 11:35:44;;;;;;;1.73;1.40;;;25.20;91.70;;;;;;4965479;28;20242;-63
2022/06/22 11:38:44;;;;;;;4.60;1.30;;;25.10;92.20;;;;;;4974936;28;20219;-68
2022/06/22 11:41:26;;;;;;;1.15;1.00;;;25.50;92.30;;;;;;4974297;28;20238;-74
2022/06/22 11:44:25;;;;;;;1.20;1.10;;;25.90;92.40;;;;;;4974579;28;20211;-65
2022/06/22 11:46:55;;;;;;;2.13;1.10;;;25.80;90.90;;;;;;4974443;28;20235;-62
2022/06/22 11:49:45;;;;;;;3.67;1.20;;;25.80;91.10;;;;;;4974517;28;20298;-65
2022/06/22 11:52:45;;;;;;;3.63;1.40;;;25.80;91.60;;;;;;4974400;28;20286;-77
2022/06/22 11:55:22;;;;;;;4.80;1.30;;;25.90;91.60;;;;;;4974123;28;20229;-62
2022/06/22 11:58:27;;;;;;;3.47;1.30;;;25.60;91.00;;;;;;4974210;28;20211;-66
2022/06/22 12:01:29;;;;;;;4.13;1.40;;;25.70;92.10;;;;;;4974505;28;20210;-66
2022/06/22 12:04:33;;;;;;;1.30;1.20;;;26.00;92.60;;;;;;4969741;28;20207;-62
2022/06/22 12:07:32;;;;;;;2.35;1.10;;;25.80;91.70;;;;;;4964556;28;20330;-77
2022/06/22 12:10:25;;;;;;;1.85;1.17;;;25.50;91.10;;;;;;4974312;28;20281;-62
2022/06/22 12:13:09;;;;;;;1.90;1.00;;;25.40;91.00;;;;;;4973951;28;20231;-79
2022/06/22 12:15:53;;;;;;;2.22;1.38;;;25.50;91.90;;;;;;4974233;28;20211;-79
2022/06/22 12:18:32;;;;;;;4.57;1.42;;;25.30;91.80;;;;;;4974272;28;20210;-64
2022/06/22 12:21:24;;;;;;;3.67;1.00;;;25.40;91.70;;;;;;4974078;28;20741;-62
2022/06/22 12:23:59;;;;;;;1.60;1.10;;;25.50;92.70;;;;;;4964215;28;20718;-62
2022/06/22 12:26:39;;;;;;;2.63;1.00;;;25.40;92.30;;;;;;4974183;28;20329;-65
2022/06/22 12:29:23;;;;;;;1.63;1.10;;;25.50;91.60;;;;;;4973682;28;20257;-80
2022/06/22 12:31:54;;;;;;;2.90;1.10;;;25.60;90.70;;;;;;4973887;28;20314;-65
2022/06/22 12:34:29;;;;;;;3.40;1.20;;;25.70;91.20;;;;;;4973901;28;20266;-70
2022/06/22 12:37:00;;;;;;;2.90;1.50;;;25.60;91.70;;;;;;4973966;28;20253;-63
2022/06/22 12:39:33;;;;;;;1.30;1.00;;;25.50;91.00;;;;;;4973709;28;20211;-62
2022/06/22 12:42:19;;;;;;;1.10;1.00;;;25.40;91.80;;;;;;4973509;28;20262;-65
2022/06/22 12:45:14;;;;;;;2.25;0.80;;;25.50;92.40;;;;;;4973809;28;20211;-70
2022/06/22 12:48:08;;;;;;;1.80;1.00;;;25.80;91.60;;;;;;4973710;28;20235;-62
2022/06/22 12:51:05;;;;;;;1.73;1.10;;;25.70;90.40;;;;;;4974196;28;20207;-65
2022/06/22 12:53:37;;;;;;;2.80;0.90;;;25.60;91.10;;;;;;4973764;28;20736;-64
2022/06/22 12:56:10;;;;;;;1.30;0.90;;;25.60;91.00;;;;;;4973946;28;20294;-64
2022/06/22 12:58:44;;;;;;;1.30;1.02;;;25.60;90.50;;;;;;4973752;28;20207;-62
2022/06/22 13:01:11;;;;;;;3.10;1.05;;;25.50;90.50;;;;;;4973669;28;20689;-62
2022/06/22 13:03:42;;;;;;;2.17;1.17;;;25.60;90.90;;;;;;4973673;28;20259;-63
2022/06/22 13:06:09;;;;;;;1.83;0.80;;;25.70;91.20;;;;;;4975508;28;20234;-62
2022/06/22 13:08:37;;;;;;;2.55;1.30;;;26.00;91.50;;;;;;4977268;28;20239;-63
2022/06/22 13:11:13;;;;;;;3.60;1.05;;;26.10;91.70;;;;;;4977395;28;20298;-64
2022/06/22 13:13:48;;;;;;;1.30;0.98;;;26.10;91.10;;;;;;4977075;28;20597;-62
2022/06/22 13:16:20;;;;;;;3.78;1.35;;;26.10;91.00;;;;;;4977413;28;20642;-63
2022/06/22 13:18:53;;;;;;;3.97;1.13;;;26.00;90.90;;;;;;4977264;28;20207;-68
2022/06/22 13:21:27;;;;;;;2.38;0.98;;;25.90;90.30;;;;;;4977476;28;20214;-62
2022/06/22 13:24:03;;;;;;;1.95;1.20;;;25.90;91.30;;;;;;4977032;28;20669;-63
2022/06/22 13:26:46;;;;;;;2.88;0.80;;;25.90;91.00;;;;;;4977531;28;20236;-62
2022/06/22 13:29:27;;;;;;;1.00;0.90;;;26.00;90.90;;;;;;4976926;28;20241;-64
2022/06/22 13:32:00;;;;;;;1.45;0.70;;;26.30;90.70;;;;;;4977216;28;20629;-70
2022/06/22 13:34:31;;;;;;;1.10;0.88;;;26.40;90.40;;;;;;4976988;28;20203;-66
2022/06/22 13:37:05;;;;;;;1.10;0.90;;;26.50;90.00;;;;;;4976581;28;20294;-74
2022/06/22 13:39:50;;;;;;;2.35;1.10;;;26.60;89.30;;;;;;4976627;28;20354;-73
2022/06/22 13:42:47;;;;;;;4.78;1.23;;;26.50;89.40;;;;;;4976607;28;20728;-75
2022/06/22 13:45:35;;;;;;;1.42;0.90;;;26.40;89.90;;;;;;4974149;28;20515;-67
2022/06/22 13:48:18;;;;;;;1.75;1.08;;;26.20;90.60;;;;;;4976209;28;20275;-64
2022/06/22 13:51:19;;;;;;;1.08;0.90;;;26.20;90.10;;;;;;4976547;28;20302;-73
2022/06/22 13:54:28;;;;;;;2.70;1.30;;;26.40;90.40;;;;;;4976580;28;20233;-64
2022/06/22 13:57:05;;;;;;;3.78;0.88;;;26.40;89.10;;;;;;4976607;28;20265;-62
2022/06/22 13:59:39;;;;;;;2.63;1.13;;;26.40;86.80;;;;;;4976369;28;20246;-66
2022/06/22 14:02:19;;;;;;;3.25;1.17;;;26.50;87.80;;;;;;4976326;28;20286;-63
2022/06/22 14:04:52;;;;;;;1.05;0.82;;;26.50;88.30;;;;;;4976231;28;20226;-64
2022/06/22 14:07:28;;;;;;;2.50;0.90;;;26.70;88.60;;;;;;4976248;28;20266;-67
2022/06/22 14:10:04;;;;;;;1.85;0.90;;;26.80;88.30;;;;;;4976353;28;20207;-76
2022/06/22 14:12:38;;;;;;;1.65;0.80;;;26.60;87.90;;;;;;4974813;28;20223;-67
2022/06/22 14:15:19;;;;;;;1.67;0.80;;;26.50;90.00;;;;;;4976152;28;20689;-63
2022/06/22 14:17:54;;;;;;;2.70;0.85;;;26.60;89.40;;;;;;4976141;28;20218;-63
2022/06/22 14:20:30;;;;;;;2.45;0.90;;;26.70;89.70;;;;;;4976277;28;20653;-70
2022/06/22 14:23:02;;;;;;;1.20;0.82;;;26.70;87.50;;;;;;4975981;28;20223;-62
2022/06/22 14:25:40;;;;;;;2.63;1.20;;;26.80;86.20;;;;;;4976099;28;20213;-63
2022/06/22 14:28:13;;;;;;;3.28;0.93;;;26.80;86.80;;;;;;4975822;28;20273;-62
2022/06/22 14:30:52;;;;;;;2.05;1.00;;;26.90;85.70;;;;;;4976009;28;20238;-82
2022/06/22 14:33:38;;;;;;;1.65;0.80;;;26.80;85.30;;;;;;4975853;28;20255;-63
2022/06/22 14:36:13;;;;;;;1.67;0.80;;;26.70;87.40;;;;;;4975621;28;20222;-63
2022/06/22 14:39:02;;;;;;;2.50;0.77;;;26.80;88.20;;;;;;4975549;28;20294;-62
2022/06/22 14:41:34;;;;;;;2.47;0.90;;;27.00;87.80;;;;;;4975607;28;20263;-73
2022/06/22 14:44:15;;;;;;;0.82;0.73;;;26.90;86.50;;;;;;4975492;28;20305;-69
2022/06/22 14:46:50;;;;;;;1.13;0.80;;;27.20;86.20;;;;;;4975663;28;20238;-71
2022/06/22 14:49:22;;;;;;;1.85;0.68;;;27.20;85.20;;;;;;4975647;28;20238;-72
2022/06/22 14:51:56;;;;;;;1.83;0.88;;;27.20;86.20;;;;;;4975082;28;20259;-63
2022/06/22 14:54:28;;;;;;;2.20;0.90;;;26.90;85.20;;;;;;4975144;28;20703;-65
2022/06/22 14:56:59;;;;;;;2.63;1.00;;;26.80;86.70;;;;;;4975068;28;20704;-73
2022/06/22 14:59:33;;;;;;;1.73;0.80;;;26.80;86.40;;;;;;4975418;28;20674;-73
2022/06/22 15:02:11;;;;;;;1.38;0.60;;;26.80;86.30;;;;;;4975413;28;20227;-63
2022/06/22 15:04:43;;;;;;;2.30;0.82;;;27.00;88.20;;;;;;4975031;28;20239;-79
2022/06/22 15:07:20;;;;;;;2.85;1.00;;;27.10;84.10;;;;;;4974902;28;20233;-66
2022/06/22 15:09:54;;;;;;;2.65;0.82;;;27.00;83.60;;;;;;4975185;28;20231;-66
2022/06/22 15:15:30;;;;;;;0.52;0.52;;;27.40;85.10;;;;;;4974976;28;20207;-62
2022/06/22 15:18:21;;;;;;;1.30;0.77;;;27.10;85.10;;;;;;4974898;28;20246;-66
2022/06/22 15:20:55;;;;;;;1.27;0.70;;;27.10;86.00;;;;;;4974859;28;20219;-67
2022/06/22 15:23:27;;;;;;;2.25;0.90;;;27.10;84.90;;;;;;4974741;28;20313;-77
2022/06/22 15:26:02;;;;;;;0.70;0.65;;;27.30;85.30;;;;;;4974782;28;20242;-74
2022/06/22 15:28:40;;;;;;;1.60;0.90;;;27.30;85.40;;;;;;4973891;28;20239;-68
2022/06/22 15:31:34;;;;;;;0.70;0.50;;;27.30;84.40;;;;;;4975149;28;20219;-80
2022/06/22 15:34:39;;;;;;;1.90;1.05;;;27.40;85.70;;;;;;4975041;28;20211;-68
2022/06/22 15:37:30;;;;;;;1.08;0.75;;;27.20;84.20;;;;;;4957454;28;20630;-75
2022/06/22 15:40:35;;;;;;;1.63;0.82;;;27.00;86.30;;;;;;4974452;28;20238;-74
2022/06/22 15:43:23;;;;;;;1.42;0.80;;;26.90;85.50;;;;;;4974620;28;20227;-77
2022/06/22 15:45:57;;;;;;;3.75;0.90;;;27.00;86.90;;;;;;4974527;28;20234;-72
2022/06/22 15:48:31;;;;;;;3.22;0.80;;;27.20;86.50;;;;;;4975238;28;20634;-73
2022/06/22 15:51:06;;;;;;;1.88;0.65;;;27.30;85.90;;;;;;4974552;28;20578;-72
2022/06/22 15:53:43;;;;;;;1.88;0.70;;;27.50;84.20;;;;;;4974579;28;20269;-67
2022/06/22 15:56:27;;;;;;;4.90;1.17;;;27.40;84.00;;;;;;4974458;28;20704;-71
2022/06/22 15:58:59;;;;;;;2.58;0.80;;;27.30;84.20;;;;;;4974315;28;20278;-76
2022/06/22 16:01:36;;;;;;;1.15;0.93;;;27.20;84.50;;;;;;4974044;28;20231;-64
2022/06/22 16:04:11;;;;;;;2.25;0.80;;;27.30;84.10;;;;;;4974432;28;20215;-70
2022/06/22 16:06:49;;;;;;;2.47;0.90;;;27.20;85.10;;;;;;4974288;28;20661;-72
2022/06/22 16:09:25;;;;;;;0.93;0.80;;;27.30;84.10;;;;;;4974204;28;20662;-64
2022/06/22 16:14:47;;;;;;;1.00;0.77;;;27.10;85.00;;;;;;4954207;28;20203;-64
2022/06/22 16:17:20;;;;;;;2.20;0.95;;;27.00;84.70;;;;;;4974383;28;20211;-62
2022/06/22 16:19:54;;;;;;;0.68;0.60;;;27.30;84.70;;;;;;4973954;28;20318;-63
2022/06/22 16:22:26;;;;;;;0.80;0.70;;;27.30;85.00;;;;;;4974045;28;20227;-61
2022/06/22 16:25:02;;;;;;;1.65;0.77;;;27.10;84.70;;;;;;4974135;28;20207;-63
2022/06/22 16:27:33;;;;;;;1.23;0.80;;;26.90;85.00;;;;;;4973882;28;20721;-69
2022/06/22 16:30:04;;;;;;;1.10;0.80;;;26.90;85.40;;;;;;4973920;28;20311;-76
2022/06/22 16:32:38;;;;;;;1.58;0.80;;;26.90;86.40;;;;;;4973915;28;20230;-62
2022/06/22 16:35:12;;;;;;;1.38;0.80;;;26.90;86.40;;;;;;4973992;28;20242;-64
2022/06/22 16:37:47;;;;;;;2.70;0.90;;;26.80;85.90;;;;;;4974095;28;20242;-62
2022/06/22 16:40:22;;;;;;;2.72;1.05;;;26.90;85.60;;;;;;4976187;28;20210;-62
2022/06/22 16:43:06;;;;;;;2.22;1.05;;;26.80;85.80;;;;;;4977548;28;20246;-73
2022/06/22 16:45:37;;;;;;;2.17;0.93;;;26.80;85.40;;;;;;4977693;28;20701;-63
2022/06/22 16:48:14;;;;;;;1.88;0.70;;;26.80;85.90;;;;;;4977961;28;20271;-63
2022/06/22 16:50:47;;;;;;;2.10;1.10;;;26.80;84.80;;;;;;4977719;28;20246;-75
2022/06/22 16:53:24;;;;;;;1.70;1.00;;;26.80;85.30;;;;;;4977495;28;20633;-63
2022/06/22 16:55:56;;;;;;;0.93;0.80;;;26.90;85.70;;;;;;4977616;28;20299;-70
2022/06/22 16:58:28;;;;;;;2.75;0.80;;;26.90;85.50;;;;;;4977382;28;20234;-65
2022/06/22 17:00:59;;;;;;;1.67;0.70;;;26.80;85.20;;;;;;4977386;28;20270;-62
2022/06/22 17:03:37;;;;;;;1.95;0.90;;;26.80;85.50;;;;;;4977487;28;20234;-62
2022/06/22 17:06:20;;;;;;;1.95;0.98;;;26.90;85.80;;;;;;4977765;28;20221;-62
2022/06/22 17:08:55;;;;;;;2.42;0.80;;;26.80;84.60;;;;;;4977297;28;20258;-62
2022/06/22 17:11:26;;;;;;;1.25;1.08;;;26.70;85.00;;;;;;4977564;28;20210;-62
2022/06/22 17:13:54;;;;;;;0.85;0.70;;;26.80;86.00;;;;;;4977117;28;20670;-62
2022/06/22 17:16:26;;;;;;;1.75;0.80;;;26.70;86.50;;;;;;4977219;28;20274;-62
2022/06/22 17:19:00;;;;;;;1.08;0.93;;;26.80;86.60;;;;;;4976934;28;20246;-62
2022/06/22 17:21:36;;;;;;;1.60;0.70;;;26.80;86.70;;;;;;4976931;28;20685;-62
2022/06/22 17:24:26;;;;;;;2.25;0.95;;;26.80;86.20;;;;;;4977212;28;20210;-62
2022/06/22 17:27:09;;;;;;;1.75;0.98;;;26.70;86.40;;;;;;4976967;28;20247;-62
2022/06/22 17:29:44;;;;;;;0.60;0.60;;;26.60;86.30;;;;;;4977116;28;20214;-67
2022/06/22 17:32:22;;;;;;;0.98;0.90;;;26.50;86.70;;;;;;4976900;28;20237;-62
2022/06/22 17:34:57;;;;;;;1.58;0.85;;;26.60;85.40;;;;;;4976821;28;20250;-62
2022/06/22 17:37:38;;;;;;;1.75;0.90;;;26.50;86.10;;;;;;4976522;28;20216;-63
2022/06/22 17:40:16;;;;;;;1.85;1.00;;;26.70;85.90;;;;;;4976752;28;20665;-62
2022/06/22 17:42:50;;;;;;;1.48;0.77;;;26.70;86.00;;;;;;4976566;28;20223;-63
2022/06/22 17:45:25;;;;;;;0.88;0.80;;;26.50;86.50;;;;;;4976554;28;20207;-66
2022/06/22 17:47:59;;;;;;;1.23;0.82;;;26.50;86.20;;;;;;4976655;28;20292;-74
2022/06/22 17:50:31;;;;;;;0.88;0.70;;;26.60;87.10;;;;;;4976772;28;20211;-79
2022/06/22 17:53:02;;;;;;;1.25;0.70;;;26.50;88.00;;;;;;4976606;28;20293;-67
2022/06/22 17:55:36;;;;;;;1.73;0.70;;;26.60;88.40;;;;;;4976587;28;20254;-71
2022/06/22 17:58:14;;;;;;;3.28;0.90;;;26.70;88.10;;;;;;4976383;28;20206;-65
2022/06/22 18:00:44;;;;;;;3.45;0.88;;;26.60;88.50;;;;;;4976508;28;20242;-67
2022/06/22 18:03:20;;;;;;;0.98;0.80;;;26.60;88.70;;;;;;4976542;28;20227;-64
2022/06/22 18:05:54;;;;;;;1.20;0.85;;;26.60;87.80;;;;;;4976373;28;20293;-65
2022/06/22 18:08:30;;;;;;;0.85;0.80;;;26.60;87.20;;;;;;4976107;28;20242;-61
2022/06/22 18:11:02;;;;;;;1.35;0.90;;;26.50;87.70;;;;;;4976195;28;20211;-61
2022/06/22 18:13:33;;;;;;;1.63;0.70;;;26.40;88.00;;;;;;4975988;28;20322;-68
2022/06/22 18:16:01;;;;;;;2.17;0.82;;;26.30;88.80;;;;;;4975930;28;20306;-61
2022/06/22 18:18:34;;;;;;;1.00;0.90;;;26.30;88.30;;;;;;4976125;28;20207;-61
2022/06/22 18:21:01;;;;;;;2.03;0.90;;;26.20;88.30;;;;;;4975962;28;20207;-61
2022/06/22 18:23:34;;;;;;;2.75;0.80;;;26.20;88.10;;;;;;4976269;28;20231;-61
2022/06/22 18:26:04;;;;;;;1.67;1.00;;;26.20;88.60;;;;;;4975934;28;20306;-62
2022/06/22 18:28:38;;;;;;;1.15;1.00;;;26.30;88.50;;;;;;4975733;28;20710;-65
2022/06/22 18:31:14;;;;;;;0.70;0.63;;;26.10;89.10;;;;;;4975855;28;20210;-70
2022/06/22 18:33:45;;;;;;;2.67;1.30;;;26.20;87.80;;;;;;4975763;28;20256;-63
2022/06/22 18:36:20;;;;;;;1.08;0.70;;;26.10;88.00;;;;;;4975998;28;20302;-65
2022/06/22 18:42:06;;;;;;;0.65;0.65;;;25.90;88.90;;;;;;4975447;28;20278;-62
2022/06/22 18:44:42;;;;;;;1.13;0.80;;;25.80;89.10;;;;;;4975713;28;20211;-62
2022/06/22 18:47:15;;;;;;;2.60;0.80;;;25.60;90.00;;;;;;4975591;28;20209;-61
2022/06/22 18:49:46;;;;;;;1.75;1.08;;;25.50;90.10;;;;;;4975401;28;20231;-62
2022/06/22 18:52:19;;;;;;;1.88;0.70;;;25.40;90.20;;;;;;4975105;28;20239;-79
2022/06/22 18:54:49;;;;;;;2.58;1.17;;;25.50;89.90;;;;;;4975287;28;20208;-62
2022/06/22 18:57:22;;;;;;;1.55;0.80;;;25.60;89.70;;;;;;4975312;28;20207;-63
2022/06/22 18:59:52;;;;;;;2.20;0.73;;;25.60;89.10;;;;;;4975007;28;20670;-66
2022/06/22 19:02:31;;;;;;;2.35;0.80;;;25.50;89.20;;;;;;4974985;28;20224;-62
2022/06/22 19:05:02;;;;;;;1.85;0.88;;;25.60;89.10;;;;;;4974691;28;20210;-63
2022/06/22 19:07:31;;;;;;;1.10;0.90;;;25.50;89.50;;;;;;4975287;28;20668;-66
2022/06/22 19:10:02;;;;;;;1.33;0.63;;;25.60;89.30;;;;;;4975284;28;20203;-62
2022/06/22 19:12:33;;;;;;;1.10;0.68;;;25.60;89.30;;;;;;4974951;28;20231;-63
2022/06/22 19:15:05;;;;;;;1.70;0.80;;;25.60;89.10;;;;;;4975070;28;20210;-62
2022/06/22 19:17:44;;;;;;;1.67;0.80;;;25.70;89.20;;;;;;4975086;28;20565;-66
2022/06/22 19:20:20;;;;;;;1.60;0.75;;;25.80;89.40;;;;;;4975304;28;20289;-62
2022/06/22 19:23:02;;;;;;;1.00;0.80;;;25.70;89.70;;;;;;4974984;28;20238;-62
2022/06/22 19:25:37;;;;;;;3.13;0.80;;;25.40;89.80;;;;;;4974620;28;20206;-62
2022/06/22 19:28:12;;;;;;;1.73;0.80;;;25.20;90.20;;;;;;4975079;28;20314;-62
2022/06/22 19:30:50;;;;;;;1.80;0.95;;;25.20;90.20;;;;;;4974966;28;20210;-62
2022/06/22 19:33:24;;;;;;;1.85;0.70;;;25.30;90.10;;;;;;4974822;28;20231;-62
2022/06/22 19:35:54;;;;;;;2.78;0.80;;;25.40;90.10;;;;;;4974795;28;20203;-62
2022/06/22 19:38:35;;;;;;;2.17;0.90;;;25.20;90.00;;;;;;4974646;28;20215;-63
2022/06/22 19:41:11;;;;;;;1.10;0.77;;;25.10;90.20;;;;;;4974735;28;20302;-62
2022/06/22 19:43:53;;;;;;;3.33;0.70;;;25.00;90.60;;;;;;4974505;28;20229;-62
2022/06/22 19:46:34;;;;;;;2.03;0.80;;;25.10;90.10;;;;;;4974643;28;20285;-67
2022/06/22 19:49:14;;;;;;;1.42;0.80;;;25.00;89.50;;;;;;4974514;28;20266;-63
2022/06/22 19:51:50;;;;;;;0.80;0.70;;;25.00;89.20;;;;;;4974575;28;20289;-62
2022/06/22 19:54:23;;;;;;;1.17;0.65;;;24.90;89.60;;;;;;4974582;28;20207;-62
2022/06/22 19:56:57;;;;;;;1.58;0.68;;;25.00;89.70;;;;;;4974360;28;20680;-62
2022/06/22 19:59:27;;;;;;;1.23;0.65;;;24.80;90.00;;;;;;4974600;28;20207;-62
2022/06/22 20:02:00;;;;;;;1.05;0.60;;;24.80;89.70;;;;;;4974565;28;20314;-64
2022/06/22 20:04:30;;;;;;;1.95;0.70;;;24.70;89.80;;;;;;4974411;28;20306;-62
2022/06/22 20:07:09;;;;;;;0.90;0.70;;;24.70;90.00;;;;;;4974464;28;20207;-62
2022/06/22 20:09:44;;;;;;;0.63;0.60;;;24.50;90.10;;;;;;4974251;28;20702;-62
2022/06/22 20:12:15;;;;;;;4.05;0.65;;;24.60;90.10;;;;;;4974404;28;20230;-62
2022/06/22 20:14:47;;;;;;;0.90;0.60;;;24.70;89.80;;;;;;4974009;28;20207;-62
2022/06/22 20:17:19;;;;;;;1.38;0.60;;;24.60;90.10;;;;;;4974330;28;20211;-62
2022/06/22 20:19:46;;;;;;;1.23;0.60;;;24.70;90.10;;;;;;4974142;28;20211;-62
2022/06/22 20:22:21;;;;;;;0.90;0.70;;;24.60;90.10;;;;;;4974397;28;20318;-62
2022/06/22 20:24:56;;;;;;;1.58;0.88;;;24.70;90.10;;;;;;4974156;28;20207;-62
2022/06/22 20:27:35;;;;;;;1.40;0.65;;;24.60;90.20;;;;;;4974140;28;20586;-62
2022/06/22 20:30:06;;;;;;;1.20;0.70;;;24.50;90.30;;;;;;4973976;28;20632;-61
2022/06/22 20:32:44;;;;;;;2.55;0.82;;;24.60;90.20;;;;;;4973985;28;20736;-62
2022/06/22 20:35:41;;;;;;;1.10;0.80;;;24.40;90.40;;;;;;4974029;28;20202;-62
2022/06/22 20:38:11;;;;;;;1.85;1.20;;;24.20;90.60;;;;;;4974045;28;20214;-62
2022/06/22 20:40:47;;;;;;;0.80;0.70;;;24.30;90.70;;;;;;4973898;28;20207;-70
2022/06/22 20:43:22;;;;;;;1.58;1.00;;;24.40;90.70;;;;;;4974081;28;20231;-62
2022/06/22 20:45:57;;;;;;;1.30;0.77;;;24.30;90.90;;;;;;4974099;28;20207;-62
2022/06/22 20:48:41;;;;;;;1.65;0.80;;;24.20;90.70;;;;;;4973876;28;20600;-62
2022/06/22 20:51:12;;;;;;;1.27;0.70;;;24.20;90.80;;;;;;4973847;28;20207;-63
2022/06/22 20:53:45;;;;;;;1.88;0.60;;;24.20;90.60;;;;;;4973819;28;20318;-63
2022/06/22 20:56:16;;;;;;;1.20;0.70;;;24.20;90.70;;;;;;4973940;28;20218;-62
2022/06/22 20:58:47;;;;;;;0.77;0.65;;;24.10;90.80;;;;;;4974106;28;20577;-62
2022/06/22 21:01:17;;;;;;;1.08;0.65;;;24.10;91.00;;;;;;4973794;28;20290;-62
2022/06/22 21:03:49;;;;;;;3.40;0.85;;;24.10;90.90;;;;;;4973729;28;20227;-63
2022/06/22 21:06:20;;;;;;;1.75;0.75;;;24.00;91.00;;;;;;4974111;28;20306;-62
2022/06/22 21:08:55;;;;;;;1.00;0.90;;;23.90;91.10;;;;;;4973897;28;20325;-63
2022/06/22 21:11:32;;;;;;;0.85;0.75;;;23.60;91.30;;;;;;4973784;28;20207;-63
2022/06/22 21:14:11;;;;;;;1.55;0.60;;;23.50;91.40;;;;;;4973568;28;20289;-65
2022/06/22 21:16:49;;;;;;;2.03;1.00;;;23.50;91.60;;;;;;4973572;28;20302;-63
2022/06/22 21:19:46;;;;;;;1.23;0.77;;;23.50;91.40;;;;;;4973662;28;20685;-64
2022/06/22 21:22:18;;;;;;;2.45;0.60;;;23.70;91.00;;;;;;4973279;28;20238;-63
2022/06/22 21:25:16;;;;;;;0.98;0.80;;;23.80;90.90;;;;;;4973786;28;20207;-63
2022/06/22 21:27:58;;;;;;;0.88;0.73;;;23.90;91.00;;;;;;4975939;28;20666;-71
2022/06/22 21:30:28;;;;;;;2.40;0.90;;;24.00;90.80;;;;;;4976861;28;20732;-66
2022/06/22 21:33:12;;;;;;;0.60;0.60;;;23.60;91.00;;;;;;4976907;28;20227;-63
2022/06/22 21:35:51;;;;;;;1.15;0.70;;;23.60;91.30;;;;;;4976933;28;20203;-63
